Time;durP1;ratioP1;P1;durP2;ratioP2;P2;SDS_P1;SDS_P2;PMS_P1;PMS_P2;Temp;Humidity;BMP_temperature;BMP_pressure;BME280_temperature;BME280_humidity;BME280_pressure;Samples;Min_cycle;Max_cycle;Signal;HPM_P1;HPM_P2
2022/08/26 00:00:10;;;;;;;24.00;6.17;;;17.40;99.90;;;;;;4384949;28;657457;-94
2022/08/26 00:02:57;;;;;;;20.40;6.33;;;17.40;99.90;;;;;;4386322;28;657331;-94
2022/08/26 00:05:45;;;;;;;20.87;6.13;;;17.40;99.90;;;;;;4406907;28;656983;-93
2022/08/26 00:08:33;;;;;;;24.43;6.03;;;17.40;99.90;;;;;;4383342;28;657740;-93
2022/08/26 00:11:21;;;;;;;15.80;6.07;;;17.40;99.90;;;;;;4386546;28;657512;-94
2022/08/26 00:14:08;;;;;;;18.03;5.90;;;17.30;99.90;;;;;;4397839;28;657944;-94
2022/08/26 00:16:55;;;;;;;14.67;5.27;;;17.20;99.90;;;;;;4372031;28;657541;-93
2022/08/26 00:19:43;;;;;;;18.33;5.47;;;17.20;99.90;;;;;;4403178;28;658812;-95
2022/08/26 00:22:33;;;;;;;14.03;5.60;;;17.20;99.90;;;;;;4387626;28;657642;-94
2022/08/26 00:25:22;;;;;;;19.83;5.83;;;17.10;99.90;;;;;;4388711;28;657891;-94
2022/08/26 00:28:09;;;;;;;13.67;5.53;;;17.10;99.90;;;;;;4408206;28;657336;-93
2022/08/26 00:30:57;;;;;;;14.17;5.90;;;17.10;99.90;;;;;;4383452;28;657442;-94
2022/08/26 00:33:44;;;;;;;16.13;5.93;;;17.10;99.90;;;;;;4401818;28;657794;-95
2022/08/26 00:36:31;;;;;;;15.85;5.60;;;17.10;99.90;;;;;;4380000;28;658099;-93
2022/08/26 00:39:19;;;;;;;18.87;5.60;;;17.00;99.90;;;;;;4405642;28;658177;-93
2022/08/26 00:42:08;;;;;;;19.73;5.90;;;17.00;99.90;;;;;;4381594;28;657982;-93
2022/08/26 00:44:56;;;;;;;21.23;5.50;;;17.00;99.90;;;;;;4388212;28;657363;-92
2022/08/26 00:47:44;;;;;;;17.52;5.53;;;16.90;99.90;;;;;;4405593;28;657561;-94
2022/08/26 00:50:33;;;;;;;14.10;5.87;;;16.90;99.90;;;;;;4376604;28;657398;-94
2022/08/26 00:53:24;;;;;;;14.50;5.60;;;16.90;99.90;;;;;;4392310;28;657598;-93
2022/08/26 00:56:14;;;;;;;14.67;5.10;;;16.90;99.90;;;;;;4356851;28;657657;-93
2022/08/26 00:59:08;;;;;;;14.43;5.40;;;16.80;99.90;;;;;;4344352;28;657613;-94
2022/08/26 01:01:56;;;;;;;16.30;5.97;;;16.80;99.90;;;;;;4343984;28;658803;-93
2022/08/26 01:04:43;;;;;;;16.33;5.60;;;16.80;99.90;;;;;;4408187;28;658890;-92
2022/08/26 01:07:31;;;;;;;15.80;5.67;;;16.70;99.90;;;;;;4383302;28;657481;-93
2022/08/26 01:10:19;;;;;;;17.23;5.73;;;16.70;99.90;;;;;;4397317;28;657865;-93
2022/08/26 01:13:09;;;;;;;19.00;8.03;;;16.70;99.90;;;;;;4386652;28;657569;-92
2022/08/26 01:15:58;;;;;;;32.83;11.07;;;16.70;99.90;;;;;;4385055;28;657435;-92
2022/08/26 01:18:47;;;;;;;29.17;12.90;;;16.70;99.90;;;;;;4387218;28;658699;-92
2022/08/26 01:21:36;;;;;;;39.03;14.27;;;16.80;99.90;;;;;;4404154;28;658357;-93
2022/08/26 01:24:26;;;;;;;28.17;12.67;;;16.80;99.90;;;;;;4386379;28;658803;-93
2022/08/26 01:27:14;;;;;;;26.10;9.80;;;16.80;99.90;;;;;;4386581;28;659728;-94
2022/08/26 01:30:01;;;;;;;24.63;12.43;;;16.80;99.90;;;;;;4388235;28;657667;-94
2022/08/26 01:32:49;;;;;;;24.00;9.90;;;16.80;99.90;;;;;;4406326;28;658699;-93
2022/08/26 01:35:37;;;;;;;19.13;10.15;;;16.80;99.90;;;;;;4383880;28;657905;-94
2022/08/26 01:38:26;;;;;;;23.37;9.50;;;16.80;99.90;;;;;;4405624;28;659191;-94
2022/08/26 01:41:15;;;;;;;23.40;9.73;;;16.80;99.90;;;;;;4369748;28;658150;-94
2022/08/26 01:44:03;;;;;;;13.97;6.93;;;16.70;99.90;;;;;;4385867;28;657792;-92
2022/08/26 01:46:51;;;;;;;17.97;5.83;;;16.80;99.90;;;;;;4387138;28;657517;-92
2022/08/26 01:49:38;;;;;;;13.40;6.70;;;16.70;99.90;;;;;;4406869;28;657974;-94
2022/08/26 01:52:26;;;;;;;11.73;5.87;;;16.70;99.90;;;;;;4390933;28;658450;-93
2022/08/26 01:55:14;;;;;;;13.43;5.67;;;16.70;99.90;;;;;;4407428;28;657728;-94
2022/08/26 01:58:04;;;;;;;18.05;6.32;;;16.70;99.90;;;;;;4386832;28;658133;-94
2022/08/26 02:00:52;;;;;;;23.70;6.00;;;16.70;99.90;;;;;;4387747;28;657369;-93
2022/08/26 02:03:43;;;;;;;17.60;5.83;;;16.70;99.90;;;;;;4407913;28;657817;-94
2022/08/26 02:06:30;;;;;;;20.70;5.50;;;16.60;99.90;;;;;;4362517;28;657772;-90
2022/08/26 02:09:18;;;;;;;17.40;5.20;;;16.60;99.90;;;;;;4412639;28;658411;-94
2022/08/26 02:12:06;;;;;;;10.45;4.90;;;16.60;99.90;;;;;;4388670;28;657591;-94
2022/08/26 02:14:56;;;;;;;12.87;4.77;;;16.60;99.90;;;;;;4405513;28;658697;-92
2022/08/26 02:17:44;;;;;;;9.87;5.07;;;16.60;99.90;;;;;;4382309;28;657682;-92
2022/08/26 02:20:32;;;;;;;13.80;4.67;;;16.60;99.90;;;;;;4388571;28;656536;-92
2022/08/26 02:23:19;;;;;;;13.87;4.67;;;16.60;99.90;;;;;;4411438;28;658391;-92
2022/08/26 02:26:09;;;;;;;14.70;4.77;;;16.60;99.90;;;;;;4382178;28;657519;-93
2022/08/26 02:28:58;;;;;;;10.83;4.43;;;16.50;99.90;;;;;;4388276;28;657801;-92
2022/08/26 02:31:47;;;;;;;10.17;4.90;;;16.50;99.90;;;;;;4381379;28;657439;-95
2022/08/26 02:34:36;;;;;;;12.97;4.43;;;16.50;99.90;;;;;;4399318;28;657193;-91
2022/08/26 02:37:23;;;;;;;11.20;4.50;;;16.50;1.00;;;;;;4409383;28;658106;-94
2022/08/26 02:40:12;;;;;;;13.73;4.83;;;16.40;1.00;;;;;;4385606;28;656244;-95
2022/08/26 02:42:59;;;;;;;9.87;4.33;;;16.40;99.90;;;;;;4407351;28;656233;-93
2022/08/26 02:45:46;;;;;;;14.17;4.73;;;16.30;99.90;;;;;;4383763;28;656768;-94
2022/08/26 02:48:35;;;;;;;13.93;4.50;;;16.30;99.90;;;;;;4407722;28;657453;-92
2022/08/26 02:51:22;;;;;;;8.87;4.40;;;16.20;99.90;;;;;;4384469;28;657795;-94
2022/08/26 02:54:09;;;;;;;16.13;4.63;;;16.20;99.90;;;;;;4401699;28;657449;-94
2022/08/26 02:56:57;;;;;;;14.50;4.30;;;16.20;99.90;;;;;;4374444;28;657393;-94
2022/08/26 02:59:44;;;;;;;12.60;4.47;;;16.20;99.90;;;;;;4404852;28;657910;-94
2022/08/26 03:02:31;;;;;;;14.13;4.70;;;16.20;99.90;;;;;;4383772;28;658243;-90
2022/08/26 03:05:20;;;;;;;8.13;4.17;;;16.20;99.90;;;;;;4409431;28;657591;-90
2022/08/26 03:08:10;;;;;;;12.20;4.93;;;16.20;99.90;;;;;;4385606;28;657756;-93
2022/08/26 03:10:58;;;;;;;12.80;4.63;;;16.20;99.90;;;;;;4384306;28;657955;-93
2022/08/26 03:13:45;;;;;;;14.43;4.37;;;16.20;99.90;;;;;;4391512;28;657335;-93
2022/08/26 03:16:34;;;;;;;16.27;4.90;;;16.20;99.90;;;;;;4388598;28;658787;-92
2022/08/26 03:19:22;;;;;;;20.50;4.13;;;16.20;99.90;;;;;;4385498;28;657921;-93
2022/08/26 03:22:11;;;;;;;15.13;4.47;;;16.20;99.90;;;;;;4393059;28;657421;-93
2022/08/26 03:24:59;;;;;;;16.60;4.77;;;16.20;99.90;;;;;;4386238;28;658011;-92
2022/08/26 03:27:47;;;;;;;9.53;4.40;;;16.00;99.90;;;;;;4357239;28;658358;-93
2022/08/26 03:30:40;;;;;;;10.10;4.43;;;16.00;99.90;;;;;;4411594;28;657571;-92
2022/08/26 03:33:27;;;;;;;15.60;4.40;;;15.90;99.90;;;;;;4388708;28;658416;-91
2022/08/26 03:36:15;;;;;;;11.77;4.73;;;15.90;99.90;;;;;;4410117;28;658412;-92
2022/08/26 03:39:03;;;;;;;26.27;4.60;;;15.80;99.90;;;;;;4387643;28;657880;-93
2022/08/26 03:41:51;;;;;;;12.40;4.23;;;15.80;99.90;;;;;;4376769;28;657572;-92
2022/08/26 03:44:41;;;;;;;10.10;4.57;;;15.80;99.90;;;;;;4395415;28;657987;-92
2022/08/26 03:47:30;;;;;;;18.20;4.90;;;15.70;99.90;;;;;;4301522;28;658146;-92
2022/08/26 03:50:22;;;;;;;7.70;3.90;;;15.80;99.90;;;;;;4330651;28;659392;-92
2022/08/26 03:53:10;;;;;;;9.13;4.10;;;15.70;99.90;;;;;;4271658;28;656451;-93
2022/08/26 03:55:59;;;;;;;12.83;4.07;;;15.70;99.90;;;;;;4327781;28;658080;-92
2022/08/26 03:58:46;;;;;;;10.18;4.30;;;15.80;99.90;;;;;;4380911;28;657639;-92
2022/08/26 04:01:36;;;;;;;12.97;3.93;;;15.70;99.90;;;;;;4407000;28;658142;-92
2022/08/26 04:04:23;;;;;;;9.88;3.80;;;15.70;99.90;;;;;;4385938;28;657473;-94
2022/08/26 04:10:40;;;;;;;14.33;4.70;;;15.70;99.90;;;;;;4233499;28;658090;-94
2022/08/26 04:13:43;;;;;;;14.17;3.90;;;15.70;99.90;;;;;;4264750;28;658070;-93
2022/08/26 04:16:31;;;;;;;15.32;4.15;;;15.70;99.90;;;;;;4305584;28;658134;-93
2022/08/26 04:19:23;;;;;;;9.80;4.00;;;15.60;99.90;;;;;;4284876;28;658597;-92
2022/08/26 04:22:11;;;;;;;7.57;3.97;;;15.70;99.90;;;;;;4383087;28;656575;-92
2022/08/26 04:24:58;;;;;;;9.77;4.40;;;15.80;99.90;;;;;;4389558;28;657382;-92
2022/08/26 04:27:45;;;;;;;7.68;3.88;;;15.70;99.90;;;;;;4377694;28;656961;-90
2022/08/26 04:30:36;;;;;;;11.60;4.00;;;15.70;99.90;;;;;;4388051;28;656958;-95
2022/08/26 04:33:24;;;;;;;11.50;4.30;;;15.70;99.90;;;;;;4384310;28;657858;-95
2022/08/26 04:36:11;;;;;;;10.87;3.90;;;15.70;99.90;;;;;;4372932;28;657420;-91
2022/08/26 04:38:59;;;;;;;12.47;4.50;;;15.80;99.90;;;;;;4405356;28;657513;-92
2022/08/26 04:41:48;;;;;;;7.77;3.90;;;15.90;99.90;;;;;;4375846;28;658189;-92
2022/08/26 04:44:35;;;;;;;14.03;3.97;;;16.00;99.90;;;;;;4389814;28;656348;-92
2022/08/26 04:47:24;;;;;;;10.83;3.77;;;16.20;99.90;;;;;;4397473;28;658765;-93
2022/08/26 04:50:12;;;;;;;13.70;4.38;;;16.10;99.90;;;;;;4370488;28;657758;-92
2022/08/26 04:52:59;;;;;;;14.13;4.30;;;16.20;99.90;;;;;;4409423;28;657958;-93
2022/08/26 04:55:46;;;;;;;11.10;4.30;;;16.30;99.90;;;;;;4385654;28;657571;-91
2022/08/26 04:58:33;;;;;;;10.00;3.83;;;16.50;99.90;;;;;;4408428;28;658208;-91
2022/08/26 05:01:20;;;;;;;11.60;4.50;;;16.50;99.90;;;;;;4378624;28;658537;-89
2022/08/26 05:04:09;;;;;;;19.10;4.20;;;16.60;99.90;;;;;;4410684;28;658019;-90
2022/08/26 05:06:56;;;;;;;11.90;4.13;;;16.70;99.90;;;;;;4380592;28;657697;-92
2022/08/26 05:09:44;;;;;;;16.50;4.00;;;16.80;99.90;;;;;;4362286;28;658109;-92
2022/08/26 05:12:31;;;;;;;9.90;3.90;;;17.00;99.90;;;;;;4385562;28;657476;-91
2022/08/26 05:15:18;;;;;;;8.97;3.67;;;17.10;99.90;;;;;;4413500;28;656444;-92
2022/08/26 05:18:06;;;;;;;15.80;4.30;;;17.20;99.90;;;;;;4390344;28;656950;-89
2022/08/26 05:20:54;;;;;;;10.67;4.03;;;17.40;99.90;;;;;;4408887;28;657600;-91
2022/08/26 05:23:41;;;;;;;14.90;4.37;;;17.60;99.90;;;;;;4388174;28;657798;-92
2022/08/26 05:26:29;;;;;;;12.83;3.83;;;17.80;99.90;;;;;;4391961;28;658235;-92
2022/08/26 05:29:17;;;;;;;10.23;4.60;;;18.00;99.90;;;;;;4383457;28;658211;-92
2022/08/26 05:32:04;;;;;;;14.73;5.20;;;18.10;99.90;;;;;;4394275;28;657505;-91
2022/08/26 05:34:54;;;;;;;14.63;5.43;;;18.30;99.90;;;;;;4379517;28;657981;-93
2022/08/26 05:37:54;;;;;;;11.17;4.57;;;18.40;99.90;;;;;;4397908;28;657525;-92
2022/08/26 05:40:43;;;;;;;11.73;4.50;;;18.70;99.90;;;;;;4378247;28;658381;-91
2022/08/26 05:43:30;;;;;;;20.90;4.03;;;18.90;99.90;;;;;;4387507;28;657940;-91
2022/08/26 05:46:17;;;;;;;19.73;4.67;;;19.10;99.90;;;;;;4397923;28;657418;-93
2022/08/26 05:49:06;;;;;;;13.10;4.30;;;19.30;99.90;;;;;;4397623;28;657703;-93
2022/08/26 05:51:53;;;;;;;13.67;5.00;;;19.60;99.90;;;;;;4397654;28;657650;-92
2022/08/26 05:54:42;;;;;;;16.70;5.17;;;19.90;99.90;;;;;;4376276;28;657800;-92
2022/08/26 05:57:29;;;;;;;16.90;4.93;;;20.00;99.90;;;;;;4398282;28;657469;-93
2022/08/26 06:00:17;;;;;;;11.10;4.37;;;20.20;99.90;;;;;;4374312;28;658377;-91
2022/08/26 06:03:04;;;;;;;22.67;5.07;;;20.40;99.90;;;;;;4402655;28;658046;-92
2022/08/26 06:05:51;;;;;;;13.67;4.47;;;20.50;99.90;;;;;;4375199;28;657835;-91
2022/08/26 06:08:38;;;;;;;14.87;4.53;;;20.70;99.90;;;;;;4400964;28;658679;-92
2022/08/26 06:11:28;;;;;;;11.47;4.60;;;20.90;99.90;;;;;;4382405;28;657711;-90
2022/08/26 06:14:16;;;;;;;13.77;4.47;;;21.00;99.90;;;;;;4391893;28;657472;-91
2022/08/26 06:17:03;;;;;;;13.13;3.90;;;21.10;99.90;;;;;;4401791;28;657968;-91
2022/08/26 06:19:50;;;;;;;10.67;4.00;;;21.30;99.90;;;;;;4380968;28;657658;-90
2022/08/26 06:25:43;;;;;;;10.33;4.47;;;21.50;99.90;;;;;;4389151;28;657527;-91
2022/08/26 06:28:32;;;;;;;13.27;4.43;;;21.60;99.90;;;;;;4377153;28;657210;-91
2022/08/26 06:31:19;;;;;;;19.10;4.43;;;21.80;99.90;;;;;;4392844;28;657888;-92
2022/08/26 06:34:06;;;;;;;17.17;4.33;;;21.90;99.90;;;;;;4377056;28;657553;-92
2022/08/26 06:36:54;;;;;;;14.03;4.07;;;22.00;99.90;;;;;;4397731;28;658580;-91
2022/08/26 06:39:41;;;;;;;13.30;4.20;;;22.20;99.90;;;;;;4382008;28;657620;-92
2022/08/26 06:42:28;;;;;;;18.47;4.03;;;22.30;99.90;;;;;;4403541;28;658251;-92
2022/08/26 06:45:17;;;;;;;10.80;4.43;;;22.50;99.90;;;;;;4374397;28;657523;-91
2022/08/26 06:48:05;;;;;;;13.73;3.73;;;22.60;99.90;;;;;;4406160;28;657152;-92
2022/08/26 06:51:02;;;;;;;12.50;4.33;;;22.70;99.90;;;;;;4384805;28;658682;-92
2022/08/26 06:53:50;;;;;;;19.17;4.33;;;22.90;99.90;;;;;;4384590;28;657546;-92
2022/08/26 06:56:39;;;;;;;16.70;4.33;;;23.00;99.90;;;;;;4384319;28;657420;-92
2022/08/26 06:59:27;;;;;;;12.57;4.50;;;23.00;99.90;;;;;;4385300;28;657827;-91
2022/08/26 07:02:15;;;;;;;16.60;4.47;;;23.10;99.90;;;;;;4396186;28;656927;-93
2022/08/26 07:05:02;;;;;;;14.23;4.60;;;23.20;99.90;;;;;;4380707;28;657346;-93
2022/08/26 07:07:51;;;;;;;13.27;4.57;;;23.30;99.90;;;;;;4372022;28;658016;-92
2022/08/26 07:10:38;;;;;;;18.73;4.63;;;23.40;99.90;;;;;;4382778;28;657316;-92
2022/08/26 07:13:26;;;;;;;15.47;4.30;;;23.50;99.90;;;;;;4375475;28;657822;-93
2022/08/26 07:16:14;;;;;;;11.67;4.30;;;23.70;99.90;;;;;;4404748;28;657525;-92
2022/08/26 07:19:03;;;;;;;18.30;4.60;;;23.80;99.90;;;;;;4350706;28;657472;-93
2022/08/26 07:21:51;;;;;;;11.70;4.70;;;23.90;99.90;;;;;;4379919;28;657589;-92
2022/08/26 07:24:39;;;;;;;11.87;4.77;;;24.10;99.90;;;;;;4403690;28;658397;-92
2022/08/26 07:27:26;;;;;;;18.17;5.00;;;24.20;99.90;;;;;;4369631;28;658557;-92
2022/08/26 07:30:14;;;;;;;14.97;5.00;;;24.20;99.90;;;;;;4397917;28;657047;-93
2022/08/26 07:33:02;;;;;;;17.58;4.95;;;24.30;99.90;;;;;;4377507;28;657425;-93
2022/08/26 07:35:50;;;;;;;20.85;5.18;;;24.40;99.90;;;;;;4398349;28;658202;-93
2022/08/26 07:38:38;;;;;;;21.75;5.07;;;24.60;99.90;;;;;;4378327;28;657922;-93
2022/08/26 07:41:26;;;;;;;16.63;4.47;;;25.00;99.90;;;;;;4381305;28;657595;-93
2022/08/26 07:44:15;;;;;;;19.58;5.18;;;25.30;99.90;;;;;;4397737;28;657632;-91
2022/08/26 07:47:02;;;;;;;15.02;4.97;;;25.20;99.90;;;;;;4373860;28;657805;-92
2022/08/26 07:49:49;;;;;;;22.77;4.45;;;25.30;99.90;;;;;;4396914;28;657298;-92
2022/08/26 07:52:41;;;;;;;14.95;4.65;;;25.50;99.90;;;;;;4373558;28;657770;-92
2022/08/26 07:55:29;;;;;;;10.20;4.82;;;25.50;99.90;;;;;;4380225;28;658395;-94
2022/08/26 07:58:16;;;;;;;21.60;4.82;;;25.60;99.90;;;;;;4377154;28;657494;-93
2022/08/26 08:01:03;;;;;;;14.75;4.72;;;25.70;99.90;;;;;;4410532;28;657984;-93
2022/08/26 08:03:51;;;;;;;20.10;5.20;;;25.90;99.90;;;;;;4375464;28;657779;-93
2022/08/26 08:06:39;;;;;;;15.35;4.95;;;25.90;99.90;;;;;;4412665;28;657412;-93
2022/08/26 08:09:28;;;;;;;13.73;4.80;;;26.00;99.90;;;;;;4367228;28;657600;-95
2022/08/26 08:12:15;;;;;;;12.45;4.80;;;26.20;99.90;;;;;;4368899;28;657375;-93
2022/08/26 08:15:03;;;;;;;27.98;5.03;;;26.40;99.90;;;;;;4412845;28;658002;-93
2022/08/26 08:17:50;;;;;;;13.15;4.78;;;26.60;99.90;;;;;;4398656;28;657743;-93
2022/08/26 08:20:37;;;;;;;14.05;4.93;;;26.70;99.90;;;;;;4402910;28;658569;-94
2022/08/26 08:23:25;;;;;;;23.15;4.78;;;26.90;99.90;;;;;;4393710;28;658053;-94
2022/08/26 08:26:16;;;;;;;13.52;4.60;;;27.10;97.70;;;;;;4412900;28;657731;-95
2022/08/26 08:29:04;;;;;;;15.90;5.00;;;27.40;93.40;;;;;;4378448;28;657823;-93
2022/08/26 08:31:51;;;;;;;18.08;5.07;;;27.60;91.40;;;;;;4371021;28;657925;-94
2022/08/26 08:34:38;;;;;;;12.20;4.53;;;27.70;93.40;;;;;;4398834;28;658101;-96
2022/08/26 08:37:27;;;;;;;19.83;5.22;;;27.80;91.40;;;;;;4375760;28;657564;-94
2022/08/26 08:40:17;;;;;;;17.55;5.28;;;27.90;87.90;;;;;;4393186;28;658595;-93
2022/08/26 08:43:07;;;;;;;16.40;4.50;;;28.00;89.00;;;;;;4365122;28;657791;-96
2022/08/26 08:45:56;;;;;;;14.73;4.88;;;28.00;87.30;;;;;;4372181;28;657600;-95
2022/08/26 08:48:45;;;;;;;16.17;5.07;;;28.30;91.50;;;;;;4387149;28;658040;-94
2022/08/26 08:51:36;;;;;;;18.23;4.40;;;28.40;87.10;;;;;;4388033;28;657666;-95
2022/08/26 08:54:25;;;;;;;22.50;4.18;;;28.60;80.40;;;;;;4366929;28;658057;-94
2022/08/26 08:57:15;;;;;;;15.98;4.57;;;28.90;80.30;;;;;;4368627;28;658584;-95
2022/08/26 09:00:09;;;;;;;13.90;4.78;;;28.70;79.90;;;;;;4383566;28;658125;-93
2022/08/26 09:02:58;;;;;;;16.20;4.50;;;28.90;82.40;;;;;;4385590;28;657874;-95
2022/08/26 09:05:50;;;;;;;14.02;4.53;;;28.70;83.00;;;;;;4378860;28;657748;-93
2022/08/26 09:08:39;;;;;;;14.27;4.50;;;29.00;76.70;;;;;;4368621;28;658524;-94
2022/08/26 09:11:27;;;;;;;27.15;4.90;;;29.00;81.00;;;;;;4386971;28;658714;-95
2022/08/26 09:14:14;;;;;;;14.15;4.93;;;28.80;78.70;;;;;;4404947;28;657480;-96
2022/08/26 09:17:07;;;;;;;11.68;4.20;;;29.20;74.50;;;;;;4391860;28;658224;-95
2022/08/26 09:19:58;;;;;;;15.13;3.75;;;29.00;74.60;;;;;;4339077;28;658102;-95
2022/08/26 09:22:50;;;;;;;12.38;4.25;;;29.60;73.10;;;;;;4381427;28;657708;-95
2022/08/26 09:25:46;;;;;;;11.43;3.95;;;29.90;69.80;;;;;;4328548;28;658655;-94
2022/08/26 09:28:34;;;;;;;15.50;4.22;;;30.20;70.80;;;;;;4382608;28;658017;-96
2022/08/26 09:31:23;;;;;;;17.60;4.43;;;30.40;68.60;;;;;;4362127;28;657818;-96
2022/08/26 09:34:15;;;;;;;13.55;4.25;;;29.90;66.80;;;;;;4375304;28;657687;-96
2022/08/26 09:37:02;;;;;;;12.77;4.32;;;29.40;67.60;;;;;;4372052;28;657847;-94
2022/08/26 09:39:49;;;;;;;11.02;3.85;;;29.80;65.40;;;;;;4395413;28;657232;-93
2022/08/26 09:42:36;;;;;;;15.48;3.65;;;30.20;60.30;;;;;;4378117;28;657708;-91
2022/08/26 09:45:27;;;;;;;13.63;4.13;;;30.40;59.70;;;;;;4406242;28;657995;-93
2022/08/26 09:48:26;;;;;;;10.37;3.70;;;30.50;62.80;;;;;;4376374;28;658218;-93
2022/08/26 09:51:28;;;;;;;19.63;3.50;;;30.70;59.90;;;;;;4374278;28;657783;-91
2022/08/26 09:54:25;;;;;;;13.80;3.92;;;30.80;57.80;;;;;;4369907;28;658130;-91
2022/08/26 09:57:17;;;;;;;10.88;4.00;;;30.90;56.10;;;;;;4368074;28;658541;-92
2022/08/26 10:00:11;;;;;;;13.93;4.35;;;31.00;59.00;;;;;;4378171;28;657538;-92
2022/08/26 10:02:58;;;;;;;17.90;3.97;;;30.70;58.80;;;;;;4371361;28;658172;-91
2022/08/26 10:05:47;;;;;;;10.00;3.70;;;30.60;57.80;;;;;;4375964;28;657712;-92
2022/08/26 10:08:37;;;;;;;12.02;3.50;;;30.70;58.50;;;;;;4395308;28;657614;-93
2022/08/26 10:11:26;;;;;;;12.82;3.22;;;30.40;54.20;;;;;;4390066;28;657834;-91
2022/08/26 10:14:15;;;;;;;16.55;3.47;;;30.80;54.10;;;;;;4384047;28;658281;-92
2022/08/26 10:17:04;;;;;;;18.47;3.70;;;30.80;51.50;;;;;;4374583;28;658208;-90
2022/08/26 10:19:53;;;;;;;12.82;2.90;;;31.20;53.40;;;;;;4385398;28;657241;-92
2022/08/26 10:22:42;;;;;;;14.77;3.30;;;30.60;50.30;;;;;;4371256;28;657599;-93
2022/08/26 10:25:32;;;;;;;9.65;3.10;;;30.50;53.50;;;;;;4406269;28;657665;-92
2022/08/26 10:28:22;;;;;;;17.25;3.28;;;31.00;53.70;;;;;;4373732;28;656867;-92
2022/08/26 10:31:16;;;;;;;10.48;3.45;;;31.50;52.00;;;;;;4381837;28;659303;-92
2022/08/26 10:34:03;;;;;;;10.70;3.35;;;31.70;49.80;;;;;;4372115;28;657606;-91
2022/08/26 10:36:55;;;;;;;14.60;3.55;;;31.80;49.10;;;;;;4384804;28;657596;-91
2022/08/26 10:39:46;;;;;;;11.30;2.85;;;31.60;50.20;;;;;;4362665;28;658977;-91
2022/08/26 10:42:38;;;;;;;11.48;3.35;;;31.70;49.50;;;;;;4376790;28;657933;-91
2022/08/26 10:45:27;;;;;;;10.82;3.00;;;31.90;49.30;;;;;;4387607;28;657576;-92
2022/08/26 10:48:16;;;;;;;16.35;2.85;;;32.20;48.40;;;;;;4401352;28;659056;-93
2022/08/26 10:51:04;;;;;;;17.50;3.53;;;32.50;47.90;;;;;;4377471;28;657626;-92
2022/08/26 10:53:54;;;;;;;14.05;3.10;;;32.30;44.80;;;;;;4365775;28;657815;-92
2022/08/26 10:56:47;;;;;;;13.17;2.83;;;32.40;47.40;;;;;;4378748;28;658220;-93
2022/08/26 10:59:42;;;;;;;14.35;3.08;;;32.30;47.10;;;;;;4373566;28;657925;-92
2022/08/26 11:02:32;;;;;;;11.05;3.47;;;32.40;47.20;;;;;;4382405;28;658008;-94
2022/08/26 11:05:22;;;;;;;19.20;3.78;;;32.20;44.10;;;;;;4405671;28;657522;-93
2022/08/26 11:08:28;;;;;;;15.48;3.58;;;32.30;45.40;;;;;;4409605;28;657488;-93
2022/08/26 11:11:44;;;;;;;13.30;3.28;;;32.50;44.90;;;;;;4390358;28;657925;-91
2022/08/26 11:14:34;;;;;;;12.52;2.65;;;32.80;44.40;;;;;;4382376;28;658370;-92
2022/08/26 11:17:57;;;;;;;20.20;3.78;;;32.90;44.60;;;;;;4376904;28;658417;-92
2022/08/26 11:20:44;;;;;;;14.35;3.28;;;32.90;43.10;;;;;;4374023;28;657994;-93
2022/08/26 11:23:46;;;;;;;12.05;3.05;;;32.60;43.90;;;;;;4375100;28;657845;-92
2022/08/26 11:26:34;;;;;;;16.23;2.45;;;32.90;42.60;;;;;;4342760;28;658091;-94
2022/08/26 11:29:51;;;;;;;12.83;2.60;;;33.10;43.80;;;;;;4373655;28;657596;-93
2022/08/26 11:32:46;;;;;;;14.35;2.92;;;33.00;42.80;;;;;;4359326;28;658711;-92
2022/08/26 11:35:51;;;;;;;13.80;2.90;;;33.00;43.30;;;;;;4363287;28;658148;-93
2022/08/26 11:38:41;;;;;;;12.50;3.00;;;32.70;43.90;;;;;;4377387;28;658121;-92
2022/08/26 11:41:30;;;;;;;13.88;3.03;;;32.40;41.90;;;;;;4383172;28;658757;-93
2022/08/26 11:44:18;;;;;;;13.63;3.25;;;32.40;45.10;;;;;;4382502;28;657952;-93
2022/08/26 11:47:09;;;;;;;14.30;3.65;;;32.20;45.70;;;;;;4376550;28;658123;-92
2022/08/26 11:50:14;;;;;;;12.25;3.35;;;32.70;42.50;;;;;;4373561;28;657223;-92
2022/08/26 11:53:03;;;;;;;10.45;2.88;;;32.60;43.10;;;;;;4381572;28;657396;-93
2022/08/26 11:55:51;;;;;;;11.68;3.20;;;32.90;44.70;;;;;;4372530;28;657575;-92
2022/08/26 11:58:41;;;;;;;14.95;3.60;;;33.20;45.20;;;;;;4404974;28;658153;-92
2022/08/26 12:01:29;;;;;;;12.52;2.88;;;33.30;42.40;;;;;;4374622;28;658884;-92
2022/08/26 12:04:21;;;;;;;17.35;3.28;;;33.20;42.40;;;;;;4382956;28;657679;-91
2022/08/26 12:07:08;;;;;;;13.57;3.17;;;33.00;43.90;;;;;;4382138;28;658318;-91
2022/08/26 12:09:58;;;;;;;14.82;3.40;;;33.30;44.40;;;;;;4372099;28;658104;-90
2022/08/26 12:12:45;;;;;;;17.20;3.55;;;33.10;43.30;;;;;;4386762;28;657651;-91
2022/08/26 12:15:33;;;;;;;13.40;3.17;;;32.20;45.70;;;;;;4390376;28;658089;-90
2022/08/26 12:18:21;;;;;;;13.43;3.50;;;32.60;46.60;;;;;;4390212;28;657872;-90
2022/08/26 12:21:12;;;;;;;13.05;3.40;;;32.90;45.10;;;;;;4392093;28;658433;-91
2022/08/26 12:24:00;;;;;;;15.83;3.73;;;32.70;45.30;;;;;;4381305;28;657472;-91
2022/08/26 12:26:50;;;;;;;20.87;3.77;;;33.20;44.30;;;;;;4385333;28;657847;-90
2022/08/26 12:29:37;;;;;;;18.95;3.75;;;33.40;46.90;;;;;;4380070;28;657906;-91
2022/08/26 12:32:24;;;;;;;13.65;3.10;;;33.10;42.60;;;;;;4387588;28;657884;-90
2022/08/26 12:35:13;;;;;;;10.75;2.95;;;32.90;43.30;;;;;;4381008;28;657578;-90
2022/08/26 12:38:00;;;;;;;14.27;3.38;;;33.20;44.40;;;;;;4381359;28;657609;-91
2022/08/26 12:40:49;;;;;;;15.00;3.10;;;32.90;43.30;;;;;;4398171;28;658700;-94
2022/08/26 12:43:40;;;;;;;16.85;3.33;;;32.80;43.60;;;;;;4379972;28;658214;-92
2022/08/26 12:46:29;;;;;;;12.52;3.58;;;32.50;43.50;;;;;;4364372;28;658762;-92
2022/08/26 12:49:18;;;;;;;11.35;3.63;;;32.50;46.60;;;;;;4359756;28;657912;-92
2022/08/26 12:52:06;;;;;;;13.00;3.25;;;32.90;43.90;;;;;;4393304;28;657730;-93
2022/08/26 12:55:00;;;;;;;19.27;3.28;;;33.10;42.00;;;;;;4385937;28;657864;-91
2022/08/26 12:57:47;;;;;;;18.33;3.05;;;33.20;42.50;;;;;;4357736;28;658164;-93
2022/08/26 13:00:37;;;;;;;16.30;3.13;;;33.30;40.30;;;;;;4400656;28;657461;-93
2022/08/26 13:03:46;;;;;;;11.30;3.55;;;33.30;41.60;;;;;;4378280;28;658044;-93
2022/08/26 13:06:35;;;;;;;11.98;2.78;;;33.00;41.30;;;;;;4381428;28;658137;-95
2022/08/26 13:09:32;;;;;;;16.55;3.30;;;33.10;41.60;;;;;;4379450;28;659001;-94
2022/08/26 13:12:33;;;;;;;11.02;2.92;;;33.50;41.00;;;;;;4375533;28;658242;-92
2022/08/26 13:15:20;;;;;;;9.23;3.08;;;33.70;41.10;;;;;;4371890;28;657649;-92
2022/08/26 13:18:09;;;;;;;8.77;2.70;;;33.30;41.80;;;;;;4399763;28;656684;-93
2022/08/26 13:20:56;;;;;;;11.98;3.10;;;33.70;40.30;;;;;;4351153;28;657083;-93
2022/08/26 13:23:44;;;;;;;9.52;2.72;;;33.80;39.30;;;;;;4373689;28;657816;-93
2022/08/26 13:26:31;;;;;;;11.40;2.40;;;33.90;38.00;;;;;;4343591;28;656660;-93
2022/08/26 13:29:21;;;;;;;7.80;2.80;;;33.70;37.90;;;;;;4289111;28;658206;-94
2022/08/26 13:32:12;;;;;;;8.73;2.80;;;33.70;35.90;;;;;;4361031;28;657591;-94
2022/08/26 13:35:05;;;;;;;10.50;2.83;;;33.90;37.10;;;;;;4305030;28;656609;-94
2022/08/26 13:37:56;;;;;;;10.57;2.97;;;33.60;38.00;;;;;;4300434;28;657628;-94
2022/08/26 13:40:43;;;;;;;11.52;2.88;;;33.60;39.50;;;;;;4362518;28;658483;-93
2022/08/26 13:43:30;;;;;;;9.40;2.97;;;33.60;39.40;;;;;;4351292;28;658087;-94
2022/08/26 13:46:18;;;;;;;11.73;2.95;;;33.70;40.70;;;;;;4390228;28;657391;-95
2022/08/26 13:49:06;;;;;;;14.27;3.00;;;33.80;39.10;;;;;;4367619;28;657829;-92
2022/08/26 13:51:54;;;;;;;9.65;2.75;;;33.80;37.60;;;;;;4375195;28;657551;-94
2022/08/26 13:54:42;;;;;;;10.98;2.95;;;34.00;37.00;;;;;;4359958;28;656744;-95
2022/08/26 13:57:29;;;;;;;15.95;2.60;;;34.40;36.30;;;;;;4391915;28;657569;-94
2022/08/26 14:00:20;;;;;;;15.52;2.40;;;34.60;36.80;;;;;;4368788;28;658710;-95
2022/08/26 14:03:08;;;;;;;9.73;2.78;;;34.70;34.90;;;;;;4369279;28;659302;-93
2022/08/26 14:05:55;;;;;;;7.28;2.78;;;34.70;37.50;;;;;;4367283;28;656261;-91
2022/08/26 14:08:47;;;;;;;11.87;2.80;;;34.80;36.80;;;;;;4395601;28;657003;-93
2022/08/26 14:11:34;;;;;;;9.80;2.92;;;34.70;35.50;;;;;;4358839;28;657943;-92
2022/08/26 14:14:21;;;;;;;14.63;2.70;;;34.40;34.70;;;;;;4351939;28;656608;-92
2022/08/26 14:17:08;;;;;;;9.48;2.85;;;34.70;37.80;;;;;;4393453;28;658316;-94
2022/08/26 14:19:55;;;;;;;10.07;2.85;;;34.50;38.00;;;;;;4367280;28;656761;-94
2022/08/26 14:22:43;;;;;;;13.35;3.03;;;34.70;35.60;;;;;;4385481;28;658758;-93
2022/08/26 14:25:32;;;;;;;6.40;2.55;;;34.40;34.80;;;;;;4386557;28;657691;-91